sensor_id;sensor_type;location;lat;lon;timestamp;P1;durP1;ratioP1;P2;durP2;ratioP2
8564;SDS011;4320;51.498;6.556;2023-07-22T00:00:25;10.98;;;8.15;;
8564;SDS011;4320;51.498;6.556;2023-07-22T00:02:51;14.20;;;8.18;;
8564;SDS011;4320;51.498;6.556;2023-07-22T00:05:17;9.18;;;7.60;;
8564;SDS011;4320;51.498;6.556;2023-07-22T00:07:48;10.70;;;8.25;;
8564;SDS011;4320;51.498;6.556;2023-07-22T00:10:14;10.23;;;7.80;;
8564;SDS011;4320;51.498;6.556;2023-07-22T00:12:40;9.95;;;7.60;;
8564;SDS011;4320;51.498;6.556;2023-07-22T00:15:06;8.95;;;8.05;;
8564;SDS011;4320;51.498;6.556;2023-07-22T00:17:32;11.43;;;8.55;;
8564;SDS011;4320;51.498;6.556;2023-07-22T00:19:58;12.07;;;8.65;;
8564;SDS011;4320;51.498;6.556;2023-07-22T00:22:25;11.68;;;8.30;;
8564;SDS011;4320;51.498;6.556;2023-07-22T00:24:52;10.25;;;7.57;;
8564;SDS011;4320;51.498;6.556;2023-07-22T00:27:17;11.75;;;8.25;;
8564;SDS011;4320;51.498;6.556;2023-07-22T00:29:43;11.30;;;8.25;;
8564;SDS011;4320;51.498;6.556;2023-07-22T00:32:09;10.43;;;7.97;;
8564;SDS011;4320;51.498;6.556;2023-07-22T00:34:34;10.15;;;8.18;;
8564;SDS011;4320;51.498;6.556;2023-07-22T00:37:01;11.00;;;7.95;;
8564;SDS011;4320;51.498;6.556;2023-07-22T00:39:27;11.57;;;8.85;;
8564;SDS011;4320;51.498;6.556;2023-07-22T00:41:53;10.95;;;8.15;;
8564;SDS011;4320;51.498;6.556;2023-07-22T00:44:18;10.98;;;8.57;;
8564;SDS011;4320;51.498;6.556;2023-07-22T00:46:44;13.40;;;8.35;;
8564;SDS011;4320;51.498;6.556;2023-07-22T00:49:10;11.23;;;8.40;;
8564;SDS011;4320;51.498;6.556;2023-07-22T00:51:37;12.27;;;8.45;;
8564;SDS011;4320;51.498;6.556;2023-07-22T00:54:03;11.15;;;8.43;;
8564;SDS011;4320;51.498;6.556;2023-07-22T00:56:30;11.52;;;8.18;;
8564;SDS011;4320;51.498;6.556;2023-07-22T00:58:58;10.75;;;8.85;;
8564;SDS011;4320;51.498;6.556;2023-07-22T01:01:24;10.55;;;8.55;;
8564;SDS011;4320;51.498;6.556;2023-07-22T01:03:49;10.85;;;8.30;;
8564;SDS011;4320;51.498;6.556;2023-07-22T01:06:15;11.70;;;8.30;;
8564;SDS011;4320;51.498;6.556;2023-07-22T01:08:43;10.70;;;8.60;;
8564;SDS011;4320;51.498;6.556;2023-07-22T01:11:08;10.65;;;7.85;;
8564;SDS011;4320;51.498;6.556;2023-07-22T01:13:34;12.13;;;9.07;;
8564;SDS011;4320;51.498;6.556;2023-07-22T01:15:59;10.93;;;8.80;;
8564;SDS011;4320;51.498;6.556;2023-07-22T01:18:25;11.38;;;8.63;;
8564;SDS011;4320;51.498;6.556;2023-07-22T01:20:51;12.80;;;8.63;;
8564;SDS011;4320;51.498;6.556;2023-07-22T01:23:16;11.32;;;8.30;;
8564;SDS011;4320;51.498;6.556;2023-07-22T01:25:42;10.27;;;8.20;;
8564;SDS011;4320;51.498;6.556;2023-07-22T01:28:09;10.77;;;7.95;;
8564;SDS011;4320;51.498;6.556;2023-07-22T01:30:36;11.70;;;8.73;;
8564;SDS011;4320;51.498;6.556;2023-07-22T01:33:01;12.43;;;9.00;;
8564;SDS011;4320;51.498;6.556;2023-07-22T01:35:27;12.32;;;8.65;;
8564;SDS011;4320;51.498;6.556;2023-07-22T01:37:53;14.13;;;8.63;;
8564;SDS011;4320;51.498;6.556;2023-07-22T01:40:19;11.25;;;9.00;;
8564;SDS011;4320;51.498;6.556;2023-07-22T01:42:44;9.82;;;8.57;;
8564;SDS011;4320;51.498;6.556;2023-07-22T01:45:10;11.15;;;8.40;;
8564;SDS011;4320;51.498;6.556;2023-07-22T01:47:36;11.30;;;8.57;;
8564;SDS011;4320;51.498;6.556;2023-07-22T01:50:03;14.05;;;9.05;;
8564;SDS011;4320;51.498;6.556;2023-07-22T01:52:29;12.48;;;8.95;;
8564;SDS011;4320;51.498;6.556;2023-07-22T01:54:55;11.65;;;9.05;;
8564;SDS011;4320;51.498;6.556;2023-07-22T01:57:21;13.15;;;8.35;;
8564;SDS011;4320;51.498;6.556;2023-07-22T01:59:46;12.43;;;9.18;;
8564;SDS011;4320;51.498;6.556;2023-07-22T02:02:12;13.35;;;9.07;;
8564;SDS011;4320;51.498;6.556;2023-07-22T02:04:38;11.40;;;8.82;;
8564;SDS011;4320;51.498;6.556;2023-07-22T02:07:04;10.38;;;8.13;;
8564;SDS011;4320;51.498;6.556;2023-07-22T02:09:31;10.82;;;8.18;;
8564;SDS011;4320;51.498;6.556;2023-07-22T02:11:57;12.43;;;9.23;;
8564;SDS011;4320;51.498;6.556;2023-07-22T02:14:23;11.10;;;8.68;;
8564;SDS011;4320;51.498;6.556;2023-07-22T02:16:49;12.95;;;9.00;;
8564;SDS011;4320;51.498;6.556;2023-07-22T02:19:14;10.75;;;8.27;;
8564;SDS011;4320;51.498;6.556;2023-07-22T02:21:41;15.68;;;9.23;;
8564;SDS011;4320;51.498;6.556;2023-07-22T02:24:07;11.13;;;8.55;;
8564;SDS011;4320;51.498;6.556;2023-07-22T02:26:34;12.60;;;8.45;;
8564;SDS011;4320;51.498;6.556;2023-07-22T02:28:59;10.75;;;8.63;;
8564;SDS011;4320;51.498;6.556;2023-07-22T02:31:25;12.63;;;8.63;;
8564;SDS011;4320;51.498;6.556;2023-07-22T02:33:50;11.68;;;9.20;;
8564;SDS011;4320;51.498;6.556;2023-07-22T02:36:16;10.80;;;8.55;;
8564;SDS011;4320;51.498;6.556;2023-07-22T02:38:42;13.07;;;9.00;;
8564;SDS011;4320;51.498;6.556;2023-07-22T02:41:07;13.60;;;8.63;;
8564;SDS011;4320;51.498;6.556;2023-07-22T02:43:33;11.45;;;9.00;;
8564;SDS011;4320;51.498;6.556;2023-07-22T02:46:04;11.55;;;8.88;;
8564;SDS011;4320;51.498;6.556;2023-07-22T02:48:32;11.25;;;8.75;;
8564;SDS011;4320;51.498;6.556;2023-07-22T02:51:08;14.98;;;9.75;;
8564;SDS011;4320;51.498;6.556;2023-07-22T02:53:34;11.65;;;9.55;;
8564;SDS011;4320;51.498;6.556;2023-07-22T02:56:03;11.40;;;8.35;;
8564;SDS011;4320;51.498;6.556;2023-07-22T02:58:31;13.40;;;8.95;;
8564;SDS011;4320;51.498;6.556;2023-07-22T03:00:58;11.52;;;8.60;;
8564;SDS011;4320;51.498;6.556;2023-07-22T03:03:24;11.75;;;8.27;;
8564;SDS011;4320;51.498;6.556;2023-07-22T03:05:50;13.48;;;8.98;;
8564;SDS011;4320;51.498;6.556;2023-07-22T03:08:16;13.57;;;8.95;;
8564;SDS011;4320;51.498;6.556;2023-07-22T03:10:42;13.27;;;8.93;;
8564;SDS011;4320;51.498;6.556;2023-07-22T03:13:13;10.85;;;8.68;;
8564;SDS011;4320;51.498;6.556;2023-07-22T03:15:39;11.63;;;8.35;;
8564;SDS011;4320;51.498;6.556;2023-07-22T03:18:05;11.13;;;8.27;;
8564;SDS011;4320;51.498;6.556;2023-07-22T03:20:31;10.55;;;8.15;;
8564;SDS011;4320;51.498;6.556;2023-07-22T03:22:57;12.10;;;8.75;;
8564;SDS011;4320;51.498;6.556;2023-07-22T03:25:22;12.85;;;9.02;;
8564;SDS011;4320;51.498;6.556;2023-07-22T03:27:48;12.82;;;8.00;;
8564;SDS011;4320;51.498;6.556;2023-07-22T03:30:15;11.55;;;8.75;;
8564;SDS011;4320;51.498;6.556;2023-07-22T03:32:42;11.50;;;8.40;;
8564;SDS011;4320;51.498;6.556;2023-07-22T03:35:08;10.82;;;8.27;;
8564;SDS011;4320;51.498;6.556;2023-07-22T03:37:35;11.50;;;8.95;;
8564;SDS011;4320;51.498;6.556;2023-07-22T03:40:02;10.88;;;8.25;;
8564;SDS011;4320;51.498;6.556;2023-07-22T03:42:42;13.02;;;8.85;;
8564;SDS011;4320;51.498;6.556;2023-07-22T03:45:08;12.20;;;9.63;;
8564;SDS011;4320;51.498;6.556;2023-07-22T03:47:37;11.88;;;8.52;;
8564;SDS011;4320;51.498;6.556;2023-07-22T03:50:04;12.32;;;7.80;;
8564;SDS011;4320;51.498;6.556;2023-07-22T03:52:30;10.23;;;8.02;;
8564;SDS011;4320;51.498;6.556;2023-07-22T03:54:56;11.65;;;8.60;;
8564;SDS011;4320;51.498;6.556;2023-07-22T03:57:25;15.32;;;8.70;;
8564;SDS011;4320;51.498;6.556;2023-07-22T03:59:52;12.45;;;8.73;;
8564;SDS011;4320;51.498;6.556;2023-07-22T04:02:21;12.60;;;8.75;;
8564;SDS011;4320;51.498;6.556;2023-07-22T04:04:47;12.68;;;8.50;;
8564;SDS011;4320;51.498;6.556;2023-07-22T04:07:13;10.48;;;7.95;;
8564;SDS011;4320;51.498;6.556;2023-07-22T04:09:39;12.13;;;8.48;;
8564;SDS011;4320;51.498;6.556;2023-07-22T04:12:05;11.73;;;8.35;;
8564;SDS011;4320;51.498;6.556;2023-07-22T04:14:31;10.98;;;7.75;;
8564;SDS011;4320;51.498;6.556;2023-07-22T04:16:57;11.93;;;8.35;;
8564;SDS011;4320;51.498;6.556;2023-07-22T04:19:23;13.15;;;8.35;;
8564;SDS011;4320;51.498;6.556;2023-07-22T04:21:48;11.85;;;8.48;;
8564;SDS011;4320;51.498;6.556;2023-07-22T04:24:14;11.55;;;8.20;;
8564;SDS011;4320;51.498;6.556;2023-07-22T04:26:43;10.63;;;8.52;;
8564;SDS011;4320;51.498;6.556;2023-07-22T04:29:10;12.05;;;8.57;;
8564;SDS011;4320;51.498;6.556;2023-07-22T04:31:37;11.55;;;8.45;;
8564;SDS011;4320;51.498;6.556;2023-07-22T04:34:03;13.82;;;8.18;;
8564;SDS011;4320;51.498;6.556;2023-07-22T04:36:28;12.35;;;8.23;;
8564;SDS011;4320;51.498;6.556;2023-07-22T04:38:54;13.20;;;8.88;;
8564;SDS011;4320;51.498;6.556;2023-07-22T04:41:19;12.10;;;8.52;;
8564;SDS011;4320;51.498;6.556;2023-07-22T04:43:46;13.43;;;8.02;;
8564;SDS011;4320;51.498;6.556;2023-07-22T04:46:12;14.80;;;8.95;;
8564;SDS011;4320;51.498;6.556;2023-07-22T04:48:38;12.10;;;7.78;;
8564;SDS011;4320;51.498;6.556;2023-07-22T04:51:03;11.00;;;8.00;;
8564;SDS011;4320;51.498;6.556;2023-07-22T04:53:29;12.88;;;7.82;;
8564;SDS011;4320;51.498;6.556;2023-07-22T04:55:55;12.10;;;8.57;;
8564;SDS011;4320;51.498;6.556;2023-07-22T04:58:21;11.32;;;8.52;;
8564;SDS011;4320;51.498;6.556;2023-07-22T05:00:46;11.90;;;8.65;;
8564;SDS011;4320;51.498;6.556;2023-07-22T05:03:13;12.05;;;7.95;;
8564;SDS011;4320;51.498;6.556;2023-07-22T05:05:39;15.50;;;8.88;;
8564;SDS011;4320;51.498;6.556;2023-07-22T05:08:05;11.30;;;7.97;;
8564;SDS011;4320;51.498;6.556;2023-07-22T05:10:32;10.25;;;7.80;;
8564;SDS011;4320;51.498;6.556;2023-07-22T05:12:58;11.15;;;7.90;;
8564;SDS011;4320;51.498;6.556;2023-07-22T05:15:24;11.77;;;8.18;;
8564;SDS011;4320;51.498;6.556;2023-07-22T05:17:50;11.73;;;8.55;;
8564;SDS011;4320;51.498;6.556;2023-07-22T05:20:16;15.18;;;8.15;;
8564;SDS011;4320;51.498;6.556;2023-07-22T05:22:42;15.82;;;8.73;;
8564;SDS011;4320;51.498;6.556;2023-07-22T05:25:08;11.48;;;8.10;;
8564;SDS011;4320;51.498;6.556;2023-07-22T05:27:34;16.40;;;8.40;;
8564;SDS011;4320;51.498;6.556;2023-07-22T05:30:01;13.05;;;8.07;;
8564;SDS011;4320;51.498;6.556;2023-07-22T05:32:30;14.50;;;7.70;;
8564;SDS011;4320;51.498;6.556;2023-07-22T05:34:56;14.23;;;8.10;;
8564;SDS011;4320;51.498;6.556;2023-07-22T05:37:22;11.10;;;8.07;;
8564;SDS011;4320;51.498;6.556;2023-07-22T05:39:50;12.13;;;8.45;;
8564;SDS011;4320;51.498;6.556;2023-07-22T05:42:16;12.48;;;8.02;;
8564;SDS011;4320;51.498;6.556;2023-07-22T05:44:42;13.13;;;7.80;;
8564;SDS011;4320;51.498;6.556;2023-07-22T05:47:08;11.20;;;7.82;;
8564;SDS011;4320;51.498;6.556;2023-07-22T05:49:34;11.95;;;7.80;;
8564;SDS011;4320;51.498;6.556;2023-07-22T05:51:59;14.30;;;8.35;;
8564;SDS011;4320;51.498;6.556;2023-07-22T05:54:25;12.23;;;8.60;;
8564;SDS011;4320;51.498;6.556;2023-07-22T05:56:50;12.57;;;8.55;;
8564;SDS011;4320;51.498;6.556;2023-07-22T05:59:17;11.07;;;8.10;;
8564;SDS011;4320;51.498;6.556;2023-07-22T06:01:42;11.43;;;7.80;;
8564;SDS011;4320;51.498;6.556;2023-07-22T06:04:08;11.45;;;8.10;;
8564;SDS011;4320;51.498;6.556;2023-07-22T06:06:33;9.20;;;7.43;;
8564;SDS011;4320;51.498;6.556;2023-07-22T06:09:00;12.18;;;7.88;;
8564;SDS011;4320;51.498;6.556;2023-07-22T06:11:25;13.68;;;8.23;;
8564;SDS011;4320;51.498;6.556;2023-07-22T06:13:51;11.38;;;8.45;;
8564;SDS011;4320;51.498;6.556;2023-07-22T06:16:16;13.80;;;7.88;;
8564;SDS011;4320;51.498;6.556;2023-07-22T06:18:42;11.10;;;8.38;;
8564;SDS011;4320;51.498;6.556;2023-07-22T06:21:08;12.10;;;8.40;;
8564;SDS011;4320;51.498;6.556;2023-07-22T06:23:33;12.88;;;8.43;;
8564;SDS011;4320;51.498;6.556;2023-07-22T06:25:59;13.93;;;8.90;;
8564;SDS011;4320;51.498;6.556;2023-07-22T06:28:24;14.15;;;9.30;;
8564;SDS011;4320;51.498;6.556;2023-07-22T06:30:50;12.35;;;8.93;;
8564;SDS011;4320;51.498;6.556;2023-07-22T06:33:15;14.73;;;9.63;;
8564;SDS011;4320;51.498;6.556;2023-07-22T06:35:41;13.00;;;8.15;;
8564;SDS011;4320;51.498;6.556;2023-07-22T06:38:07;9.80;;;7.57;;
8564;SDS011;4320;51.498;6.556;2023-07-22T06:40:33;12.95;;;8.98;;
8564;SDS011;4320;51.498;6.556;2023-07-22T06:42:58;11.40;;;8.68;;
8564;SDS011;4320;51.498;6.556;2023-07-22T06:45:24;13.85;;;9.15;;
8564;SDS011;4320;51.498;6.556;2023-07-22T06:47:49;11.35;;;8.32;;
8564;SDS011;4320;51.498;6.556;2023-07-22T06:50:15;11.43;;;8.30;;
8564;SDS011;4320;51.498;6.556;2023-07-22T06:52:41;11.82;;;8.93;;
8564;SDS011;4320;51.498;6.556;2023-07-22T06:55:06;14.18;;;8.60;;
8564;SDS011;4320;51.498;6.556;2023-07-22T06:57:32;13.32;;;9.05;;
8564;SDS011;4320;51.498;6.556;2023-07-22T06:59:58;12.57;;;8.80;;
8564;SDS011;4320;51.498;6.556;2023-07-22T07:02:24;14.52;;;8.98;;
8564;SDS011;4320;51.498;6.556;2023-07-22T07:04:50;12.98;;;9.30;;
8564;SDS011;4320;51.498;6.556;2023-07-22T07:07:16;13.25;;;8.80;;
8564;SDS011;4320;51.498;6.556;2023-07-22T07:09:41;12.82;;;9.57;;
8564;SDS011;4320;51.498;6.556;2023-07-22T07:12:07;16.85;;;9.48;;
8564;SDS011;4320;51.498;6.556;2023-07-22T07:14:34;14.10;;;8.98;;
8564;SDS011;4320;51.498;6.556;2023-07-22T07:17:00;13.02;;;8.65;;
8564;SDS011;4320;51.498;6.556;2023-07-22T07:19:26;12.27;;;9.43;;
8564;SDS011;4320;51.498;6.556;2023-07-22T07:21:52;14.55;;;9.52;;
8564;SDS011;4320;51.498;6.556;2023-07-22T07:24:18;13.68;;;8.73;;
8564;SDS011;4320;51.498;6.556;2023-07-22T07:26:43;11.48;;;8.82;;
8564;SDS011;4320;51.498;6.556;2023-07-22T07:29:09;12.65;;;8.70;;
8564;SDS011;4320;51.498;6.556;2023-07-22T07:31:35;12.15;;;8.45;;
8564;SDS011;4320;51.498;6.556;2023-07-22T07:34:01;13.38;;;8.23;;
8564;SDS011;4320;51.498;6.556;2023-07-22T07:36:27;13.05;;;8.77;;
8564;SDS011;4320;51.498;6.556;2023-07-22T07:38:53;13.43;;;7.88;;
8564;SDS011;4320;51.498;6.556;2023-07-22T07:41:18;15.88;;;9.43;;
8564;SDS011;4320;51.498;6.556;2023-07-22T07:43:44;10.65;;;7.88;;
8564;SDS011;4320;51.498;6.556;2023-07-22T07:46:23;12.90;;;8.52;;
8564;SDS011;4320;51.498;6.556;2023-07-22T07:48:58;12.77;;;7.30;;
8564;SDS011;4320;51.498;6.556;2023-07-22T07:51:26;12.40;;;8.30;;
8564;SDS011;4320;51.498;6.556;2023-07-22T07:53:53;12.02;;;8.00;;
8564;SDS011;4320;51.498;6.556;2023-07-22T07:56:19;9.85;;;7.97;;
8564;SDS011;4320;51.498;6.556;2023-07-22T07:58:46;13.40;;;7.38;;
8564;SDS011;4320;51.498;6.556;2023-07-22T08:01:12;9.65;;;7.70;;
8564;SDS011;4320;51.498;6.556;2023-07-22T08:03:38;10.45;;;7.57;;
8564;SDS011;4320;51.498;6.556;2023-07-22T08:06:06;11.25;;;7.28;;
8564;SDS011;4320;51.498;6.556;2023-07-22T08:08:32;10.77;;;6.72;;
8564;SDS011;4320;51.498;6.556;2023-07-22T08:11:02;8.48;;;6.95;;
8564;SDS011;4320;51.498;6.556;2023-07-22T08:13:30;10.65;;;7.28;;
8564;SDS011;4320;51.498;6.556;2023-07-22T08:15:58;12.77;;;7.47;;
8564;SDS011;4320;51.498;6.556;2023-07-22T08:18:24;9.52;;;6.43;;
8564;SDS011;4320;51.498;6.556;2023-07-22T08:20:51;9.80;;;6.93;;
8564;SDS011;4320;51.498;6.556;2023-07-22T08:23:18;10.85;;;7.32;;
8564;SDS011;4320;51.498;6.556;2023-07-22T08:25:44;10.20;;;6.60;;
8564;SDS011;4320;51.498;6.556;2023-07-22T08:28:09;9.48;;;6.60;;
8564;SDS011;4320;51.498;6.556;2023-07-22T08:30:35;7.80;;;6.40;;
8564;SDS011;4320;51.498;6.556;2023-07-22T08:33:01;8.80;;;6.70;;
8564;SDS011;4320;51.498;6.556;2023-07-22T08:35:27;9.32;;;6.75;;
8564;SDS011;4320;51.498;6.556;2023-07-22T08:37:52;9.13;;;6.82;;
8564;SDS011;4320;51.498;6.556;2023-07-22T08:40:19;11.90;;;7.18;;
8564;SDS011;4320;51.498;6.556;2023-07-22T08:42:45;8.43;;;6.30;;
8564;SDS011;4320;51.498;6.556;2023-07-22T08:45:11;11.57;;;7.05;;
8564;SDS011;4320;51.498;6.556;2023-07-22T08:47:42;10.30;;;6.78;;
8564;SDS011;4320;51.498;6.556;2023-07-22T08:50:11;12.73;;;6.78;;
8564;SDS011;4320;51.498;6.556;2023-07-22T08:52:43;10.45;;;6.10;;
8564;SDS011;4320;51.498;6.556;2023-07-22T08:55:10;10.57;;;6.70;;
8564;SDS011;4320;51.498;6.556;2023-07-22T08:57:36;10.18;;;6.40;;
8564;SDS011;4320;51.498;6.556;2023-07-22T09:00:03;7.65;;;5.80;;
8564;SDS011;4320;51.498;6.556;2023-07-22T09:02:32;9.50;;;5.80;;
8564;SDS011;4320;51.498;6.556;2023-07-22T09:04:58;9.20;;;5.72;;
8564;SDS011;4320;51.498;6.556;2023-07-22T09:07:24;9.68;;;5.35;;
8564;SDS011;4320;51.498;6.556;2023-07-22T09:09:50;6.75;;;5.70;;
8564;SDS011;4320;51.498;6.556;2023-07-22T09:12:17;7.32;;;5.78;;
8564;SDS011;4320;51.498;6.556;2023-07-22T09:14:44;7.40;;;4.85;;
8564;SDS011;4320;51.498;6.556;2023-07-22T09:17:10;9.07;;;5.18;;
8564;SDS011;4320;51.498;6.556;2023-07-22T09:19:36;8.23;;;5.40;;
8564;SDS011;4320;51.498;6.556;2023-07-22T09:22:02;7.97;;;5.22;;
8564;SDS011;4320;51.498;6.556;2023-07-22T09:24:27;8.07;;;5.20;;
8564;SDS011;4320;51.498;6.556;2023-07-22T09:26:54;5.47;;;3.97;;
8564;SDS011;4320;51.498;6.556;2023-07-22T09:29:36;7.55;;;4.15;;
8564;SDS011;4320;51.498;6.556;2023-07-22T09:32:04;5.20;;;4.20;;
8564;SDS011;4320;51.498;6.556;2023-07-22T09:34:30;9.05;;;4.18;;
8564;SDS011;4320;51.498;6.556;2023-07-22T09:36:57;4.07;;;3.63;;
8564;SDS011;4320;51.498;6.556;2023-07-22T09:39:28;6.70;;;4.18;;
8564;SDS011;4320;51.498;6.556;2023-07-22T09:41:54;5.07;;;3.78;;
8564;SDS011;4320;51.498;6.556;2023-07-22T09:44:21;17.25;;;4.55;;
8564;SDS011;4320;51.498;6.556;2023-07-22T09:46:47;6.53;;;3.90;;
8564;SDS011;4320;51.498;6.556;2023-07-22T09:49:15;4.10;;;3.58;;
8564;SDS011;4320;51.498;6.556;2023-07-22T09:51:41;6.70;;;3.60;;
8564;SDS011;4320;51.498;6.556;2023-07-22T09:54:07;3.90;;;3.35;;
8564;SDS011;4320;51.498;6.556;2023-07-22T09:56:42;8.88;;;3.75;;
8564;SDS011;4320;51.498;6.556;2023-07-22T09:59:12;4.40;;;3.55;;
8564;SDS011;4320;51.498;6.556;2023-07-22T10:01:39;4.82;;;3.65;;
8564;SDS011;4320;51.498;6.556;2023-07-22T10:04:05;5.93;;;3.97;;
8564;SDS011;4320;51.498;6.556;2023-07-22T10:06:32;4.20;;;3.28;;
8564;SDS011;4320;51.498;6.556;2023-07-22T10:09:02;5.50;;;3.47;;
8564;SDS011;4320;51.498;6.556;2023-07-22T10:11:32;4.70;;;3.80;;
8564;SDS011;4320;51.498;6.556;2023-07-22T10:13:58;4.65;;;3.75;;
8564;SDS011;4320;51.498;6.556;2023-07-22T10:16:24;5.18;;;3.65;;
8564;SDS011;4320;51.498;6.556;2023-07-22T10:18:50;7.30;;;3.92;;
8564;SDS011;4320;51.498;6.556;2023-07-22T10:21:16;5.72;;;4.10;;
8564;SDS011;4320;51.498;6.556;2023-07-22T10:23:44;6.40;;;4.00;;
8564;SDS011;4320;51.498;6.556;2023-07-22T10:26:10;6.95;;;3.60;;
8564;SDS011;4320;51.498;6.556;2023-07-22T10:28:39;4.88;;;2.97;;
8564;SDS011;4320;51.498;6.556;2023-07-22T10:31:07;4.07;;;3.25;;
8564;SDS011;4320;51.498;6.556;2023-07-22T10:33:33;5.43;;;3.53;;
8564;SDS011;4320;51.498;6.556;2023-07-22T10:38:38;3.97;;;3.10;;
8564;SDS011;4320;51.498;6.556;2023-07-22T10:41:13;6.60;;;3.78;;
8564;SDS011;4320;51.498;6.556;2023-07-22T10:43:57;5.10;;;2.92;;
8564;SDS011;4320;51.498;6.556;2023-07-22T10:46:37;4.10;;;2.90;;
8564;SDS011;4320;51.498;6.556;2023-07-22T10:51:38;3.75;;;3.30;;
8564;SDS011;4320;51.498;6.556;2023-07-22T10:54:11;6.05;;;3.22;;
8564;SDS011;4320;51.498;6.556;2023-07-22T10:56:37;5.90;;;3.40;;
8564;SDS011;4320;51.498;6.556;2023-07-22T10:59:05;3.60;;;2.88;;
8564;SDS011;4320;51.498;6.556;2023-07-22T11:01:35;5.15;;;2.78;;
8564;SDS011;4320;51.498;6.556;2023-07-22T11:04:21;4.45;;;2.63;;
8564;SDS011;4320;51.498;6.556;2023-07-22T11:06:55;5.82;;;2.78;;
8564;SDS011;4320;51.498;6.556;2023-07-22T11:12:06;2.83;;;2.40;;
8564;SDS011;4320;51.498;6.556;2023-07-22T11:15:01;3.45;;;2.60;;
8564;SDS011;4320;51.498;6.556;2023-07-22T11:17:29;3.00;;;2.63;;
8564;SDS011;4320;51.498;6.556;2023-07-22T11:19:56;10.73;;;2.58;;
8564;SDS011;4320;51.498;6.556;2023-07-22T11:22:25;4.43;;;2.60;;
8564;SDS011;4320;51.498;6.556;2023-07-22T11:24:54;4.50;;;2.50;;
8564;SDS011;4320;51.498;6.556;2023-07-22T11:27:19;3.40;;;2.70;;
8564;SDS011;4320;51.498;6.556;2023-07-22T11:29:45;2.83;;;2.47;;
8564;SDS011;4320;51.498;6.556;2023-07-22T11:32:16;5.97;;;2.85;;
8564;SDS011;4320;51.498;6.556;2023-07-22T11:34:43;5.10;;;2.60;;
8564;SDS011;4320;51.498;6.556;2023-07-22T11:37:10;5.10;;;2.90;;
8564;SDS011;4320;51.498;6.556;2023-07-22T11:39:36;4.40;;;2.58;;
8564;SDS011;4320;51.498;6.556;2023-07-22T11:42:03;4.88;;;2.45;;
8564;SDS011;4320;51.498;6.556;2023-07-22T11:44:29;4.35;;;2.40;;
8564;SDS011;4320;51.498;6.556;2023-07-22T11:47:05;5.30;;;3.05;;
8564;SDS011;4320;51.498;6.556;2023-07-22T11:49:35;4.22;;;2.38;;
8564;SDS011;4320;51.498;6.556;2023-07-22T11:54:33;3.58;;;2.08;;
8564;SDS011;4320;51.498;6.556;2023-07-22T11:57:13;3.25;;;2.28;;
8564;SDS011;4320;51.498;6.556;2023-07-22T11:59:43;2.95;;;2.30;;
8564;SDS011;4320;51.498;6.556;2023-07-22T12:02:18;4.68;;;2.47;;
8564;SDS011;4320;51.498;6.556;2023-07-22T12:04:52;3.60;;;2.22;;
8564;SDS011;4320;51.498;6.556;2023-07-22T12:07:25;3.80;;;2.15;;
8564;SDS011;4320;51.498;6.556;2023-07-22T12:10:02;3.20;;;1.95;;
8564;SDS011;4320;51.498;6.556;2023-07-22T12:12:37;3.25;;;2.22;;
8564;SDS011;4320;51.498;6.556;2023-07-22T12:15:11;4.18;;;2.40;;
8564;SDS011;4320;51.498;6.556;2023-07-22T12:17:45;3.22;;;2.25;;
8564;SDS011;4320;51.498;6.556;2023-07-22T12:20:25;3.03;;;2.20;;
8564;SDS011;4320;51.498;6.556;2023-07-22T12:22:52;3.40;;;2.35;;
8564;SDS011;4320;51.498;6.556;2023-07-22T12:25:18;3.45;;;2.20;;
8564;SDS011;4320;51.498;6.556;2023-07-22T12:27:44;3.55;;;2.22;;
8564;SDS011;4320;51.498;6.556;2023-07-22T12:30:09;5.00;;;3.13;;
8564;SDS011;4320;51.498;6.556;2023-07-22T12:32:36;2.95;;;2.20;;
8564;SDS011;4320;51.498;6.556;2023-07-22T12:35:02;2.90;;;2.45;;
8564;SDS011;4320;51.498;6.556;2023-07-22T12:37:28;3.13;;;2.15;;
8564;SDS011;4320;51.498;6.556;2023-07-22T12:39:54;4.20;;;2.10;;
8564;SDS011;4320;51.498;6.556;2023-07-22T12:42:21;3.80;;;2.13;;
8564;SDS011;4320;51.498;6.556;2023-07-22T12:44:46;2.95;;;2.35;;
8564;SDS011;4320;51.498;6.556;2023-07-22T12:47:12;9.07;;;2.50;;
8564;SDS011;4320;51.498;6.556;2023-07-22T12:49:38;4.53;;;2.40;;
8564;SDS011;4320;51.498;6.556;2023-07-22T12:52:03;3.28;;;2.35;;
8564;SDS011;4320;51.498;6.556;2023-07-22T12:54:32;3.17;;;2.53;;
8564;SDS011;4320;51.498;6.556;2023-07-22T12:56:58;3.03;;;2.20;;
8564;SDS011;4320;51.498;6.556;2023-07-22T12:59:24;7.32;;;2.25;;
8564;SDS011;4320;51.498;6.556;2023-07-22T13:01:49;2.47;;;1.92;;
8564;SDS011;4320;51.498;6.556;2023-07-22T13:04:15;2.45;;;1.80;;
8564;SDS011;4320;51.498;6.556;2023-07-22T13:06:40;5.70;;;2.40;;
8564;SDS011;4320;51.498;6.556;2023-07-22T13:09:06;5.38;;;2.47;;
8564;SDS011;4320;51.498;6.556;2023-07-22T13:11:32;4.28;;;2.00;;
8564;SDS011;4320;51.498;6.556;2023-07-22T13:13:57;3.47;;;2.30;;
8564;SDS011;4320;51.498;6.556;2023-07-22T13:16:23;2.58;;;2.13;;
8564;SDS011;4320;51.498;6.556;2023-07-22T13:18:48;3.28;;;2.47;;
8564;SDS011;4320;51.498;6.556;2023-07-22T13:21:14;3.40;;;2.20;;
8564;SDS011;4320;51.498;6.556;2023-07-22T13:23:40;3.30;;;1.98;;
8564;SDS011;4320;51.498;6.556;2023-07-22T13:26:05;2.22;;;2.03;;
8564;SDS011;4320;51.498;6.556;2023-07-22T13:28:31;4.32;;;2.53;;
8564;SDS011;4320;51.498;6.556;2023-07-22T13:30:57;2.67;;;1.98;;
8564;SDS011;4320;51.498;6.556;2023-07-22T13:33:22;3.65;;;2.15;;
8564;SDS011;4320;51.498;6.556;2023-07-22T13:35:48;2.40;;;2.20;;
8564;SDS011;4320;51.498;6.556;2023-07-22T13:38:15;4.90;;;2.45;;
8564;SDS011;4320;51.498;6.556;2023-07-22T13:40:41;5.05;;;2.65;;
8564;SDS011;4320;51.498;6.556;2023-07-22T13:43:07;5.03;;;2.25;;
8564;SDS011;4320;51.498;6.556;2023-07-22T13:45:34;3.95;;;2.60;;
8564;SDS011;4320;51.498;6.556;2023-07-22T13:48:00;4.15;;;2.30;;
8564;SDS011;4320;51.498;6.556;2023-07-22T13:50:25;2.85;;;2.08;;
8564;SDS011;4320;51.498;6.556;2023-07-22T13:52:51;3.70;;;2.25;;
8564;SDS011;4320;51.498;6.556;2023-07-22T13:55:17;3.05;;;2.58;;
8564;SDS011;4320;51.498;6.556;2023-07-22T13:57:42;4.82;;;2.00;;
8564;SDS011;4320;51.498;6.556;2023-07-22T14:00:08;2.42;;;2.22;;
8564;SDS011;4320;51.498;6.556;2023-07-22T14:02:35;3.65;;;2.25;;
8564;SDS011;4320;51.498;6.556;2023-07-22T14:05:02;2.03;;;1.83;;
8564;SDS011;4320;51.498;6.556;2023-07-22T14:07:28;2.92;;;2.63;;
8564;SDS011;4320;51.498;6.556;2023-07-22T14:09:54;3.95;;;2.40;;
8564;SDS011;4320;51.498;6.556;2023-07-22T14:12:20;3.08;;;2.35;;
8564;SDS011;4320;51.498;6.556;2023-07-22T14:14:45;4.00;;;2.92;;
8564;SDS011;4320;51.498;6.556;2023-07-22T14:17:11;3.88;;;2.58;;
8564;SDS011;4320;51.498;6.556;2023-07-22T14:19:37;2.10;;;1.88;;
8564;SDS011;4320;51.498;6.556;2023-07-22T14:22:02;3.30;;;2.22;;
8564;SDS011;4320;51.498;6.556;2023-07-22T14:24:29;3.22;;;2.22;;
8564;SDS011;4320;51.498;6.556;2023-07-22T14:26:54;5.88;;;2.50;;
8564;SDS011;4320;51.498;6.556;2023-07-22T14:29:20;3.17;;;2.53;;
8564;SDS011;4320;51.498;6.556;2023-07-22T14:31:46;4.72;;;2.45;;
8564;SDS011;4320;51.498;6.556;2023-07-22T14:34:12;3.88;;;2.25;;
8564;SDS011;4320;51.498;6.556;2023-07-22T14:36:37;3.13;;;2.30;;
8564;SDS011;4320;51.498;6.556;2023-07-22T14:39:03;2.85;;;2.40;;
8564;SDS011;4320;51.498;6.556;2023-07-22T14:41:29;2.78;;;2.00;;
8564;SDS011;4320;51.498;6.556;2023-07-22T14:43:55;4.68;;;2.70;;
8564;SDS011;4320;51.498;6.556;2023-07-22T14:46:21;2.72;;;2.08;;
8564;SDS011;4320;51.498;6.556;2023-07-22T14:48:47;7.30;;;2.40;;
8564;SDS011;4320;51.498;6.556;2023-07-22T14:51:12;3.53;;;2.63;;
8564;SDS011;4320;51.498;6.556;2023-07-22T14:53:38;4.53;;;2.38;;
8564;SDS011;4320;51.498;6.556;2023-07-22T14:56:04;2.60;;;1.98;;
8564;SDS011;4320;51.498;6.556;2023-07-22T14:58:32;4.38;;;1.98;;
8564;SDS011;4320;51.498;6.556;2023-07-22T15:00:57;6.50;;;2.13;;
8564;SDS011;4320;51.498;6.556;2023-07-22T15:03:23;4.38;;;2.30;;
8564;SDS011;4320;51.498;6.556;2023-07-22T15:05:49;3.78;;;2.13;;
8564;SDS011;4320;51.498;6.556;2023-07-22T15:08:14;3.35;;;2.03;;
8564;SDS011;4320;51.498;6.556;2023-07-22T15:10:40;2.03;;;1.80;;
8564;SDS011;4320;51.498;6.556;2023-07-22T15:13:05;4.07;;;2.38;;
8564;SDS011;4320;51.498;6.556;2023-07-22T15:15:31;4.30;;;2.17;;